メインページ
METAR-TAF:

METAR-TAF

空港 :

オルーミーイェ空港

オルーミーイェ, イラン

緯度: 37-32N, 経度: 045-05E, 海抜: 1297m

現時点の気象観測

当レポートは32分前の10:00(UTC)に作成
南東の風 4kt
気温 4°C
湿度 81%
気圧 1024 hPa
視程: 3000m
高度2000ftの雲は散在している
高度3000ftの雲は散在している
高度9000ftの曇り

METAR: OITR 191000Z 13004KT 3000 BR SCT020 SCT030 OVC090 04/01 Q1024

時間: 14:02 (10:32 UTC)

予報

当レポートは5時間2分前の05:30(UTC)に作成
予報は19日の 06時(UTC)から 20日の 12時(UTC)まで有効
南東の風 6kt
視程: 2500m
高度1000ftの千切れ雲あり
高度8000ftの曇り
19日の 07時(UTC)から 19日の 09時(UTC)まで徐々に
視程: 7000m
高度2000ftの雲はほとんどない
高度9000ftの雲は散在している

TAF: OITR 190530Z 1906/2012 13003MPS 2500 BR BKN010 OVC080 BECMG 1907/1909 7000 FEW020 SCT090

4,000以上の空港の気象観測と天気予報(METAR報とTAF報)

利用可能な観測所は地図上に黄色い丸と赤い丸で示す。

丸の上にカーソルを重ねると観測所名を参照できる。

次にクリックすると気象観測と天気予報を参照できる。

マップの切り替え:黒色「×」印の緑ボタンをクリックして拡大、「-」印の緑ボタンをクリックして縮小、緑色の三角印をクリックして隣りの地図に切り替え


METAR-TAF: